Time;durP1;ratioP1;P1;durP2;ratioP2;P2;SDS_P1;SDS_P2;PMS_P1;PMS_P2;Temp;Humidity;BMP_temperature;BMP_pressure;BME280_temperature;BME280_humidity;BME280_pressure;Samples;Min_cycle;Max_cycle;Signal;HPM_P1;HPM_P2
2022/08/23 00:01:17;;;;;;;16.25;14.63;;;;;;;19.87;72.49;94377.00;4891138;29;20288;-62
2022/08/23 00:03:43;;;;;;;16.65;14.98;;;;;;;19.85;72.38;94384.41;4901062;29;20232;-62
2022/08/23 00:06:09;;;;;;;17.95;15.10;;;;;;;19.89;72.57;94390.91;4895872;29;20321;-63
2022/08/23 00:08:36;;;;;;;17.63;15.85;;;;;;;19.90;72.66;94392.56;4888131;29;20245;-63
2022/08/23 00:11:01;;;;;;;16.65;15.05;;;;;;;19.86;72.92;94396.72;4892804;29;20220;-63
2022/08/23 00:13:28;;;;;;;17.20;15.43;;;;;;;19.86;73.01;94397.53;4898771;29;20666;-63
2022/08/23 00:15:54;;;;;;;15.15;13.75;;;;;;;19.96;71.42;94394.31;4910685;29;20249;-63
2022/08/23 00:18:20;;;;;;;13.95;12.65;;;;;;;20.01;70.20;94389.13;4897143;29;20301;-63
2022/08/23 00:20:46;;;;;;;13.48;12.18;;;;;;;20.07;69.89;94387.41;4893486;29;20215;-63
2022/08/23 00:23:12;;;;;;;13.63;12.05;;;;;;;20.08;69.43;94397.88;4897355;29;20206;-63
2022/08/23 00:25:38;;;;;;;14.10;12.70;;;;;;;20.00;69.61;94387.50;4893708;29;20230;-63
2022/08/23 00:28:04;;;;;;;14.65;13.30;;;;;;;19.92;70.13;94393.97;4897408;29;20725;-63
2022/08/23 00:30:30;;;;;;;15.13;13.52;;;;;;;19.89;70.37;94386.44;4895623;29;20305;-63
2022/08/23 00:32:56;;;;;;;14.93;13.25;;;;;;;19.81;70.99;94390.22;4896911;29;21267;-63
2022/08/23 00:35:22;;;;;;;17.00;15.23;;;;;;;19.78;71.58;94396.00;4895893;29;20218;-63
2022/08/23 00:37:48;;;;;;;16.65;14.98;;;;;;;19.83;71.61;94398.81;4886180;29;20218;-63
2022/08/23 00:40:17;;;;;;;15.40;14.05;;;;;;;19.79;72.03;94391.47;4911509;29;20293;-63
2022/08/23 00:48:40;;;;;;;16.23;14.52;;;;;;;19.73;73.14;94387.84;4837360;29;20261;-63
2022/08/23 00:51:13;;;;;;;16.35;14.95;;;;;;;19.71;73.46;94383.78;4837542;29;20704;-62
2022/08/23 00:53:42;;;;;;;17.10;15.38;;;;;;;19.70;73.47;94388.31;4833263;29;20622;-63
2022/08/23 00:56:11;;;;;;;17.15;15.32;;;;;;;19.78;73.63;94396.00;4831414;29;20212;-63
2022/08/23 00:58:36;;;;;;;17.80;15.98;;;;;;;19.80;73.49;94401.09;4815013;29;20236;-63
2022/08/23 01:01:05;;;;;;;18.13;16.52;;;;;;;19.78;73.54;94390.66;4816096;29;20293;-63
2022/08/23 01:03:36;;;;;;;18.42;16.50;;;;;;;19.77;73.27;94393.53;4819065;29;20225;-62
2022/08/23 01:06:33;;;;;;;18.00;16.20;;;;;;;19.76;73.76;94397.25;4838287;29;20313;-63
2022/08/23 01:09:06;;;;;;;20.75;16.80;;;;;;;19.66;74.16;94395.09;4819584;29;20315;-62
2022/08/23 01:11:38;;;;;;;19.52;17.75;;;;;;;19.65;74.51;94400.66;4834723;29;20369;-62
2022/08/23 01:14:32;;;;;;;19.10;17.27;;;;;;;19.66;74.45;94405.78;4816233;29;20320;-62
2022/08/23 01:17:06;;;;;;;19.35;17.35;;;;;;;19.66;74.59;94402.25;4867121;29;20226;-63
2022/08/23 01:20:05;;;;;;;20.15;18.25;;;;;;;19.70;74.68;94401.63;4886376;29;20263;-63
2022/08/23 01:22:42;;;;;;;21.13;18.95;;;;;;;19.79;74.62;94400.28;4888665;29;20256;-63
2022/08/23 01:25:12;;;;;;;20.80;18.70;;;;;;;19.80;74.39;94404.56;4911168;29;20228;-62
2022/08/23 01:27:41;;;;;;;20.73;18.63;;;;;;;19.85;74.41;94395.91;4905007;29;20306;-63
2022/08/23 01:30:10;;;;;;;22.00;18.40;;;;;;;19.77;74.44;94401.53;4889775;29;20340;-62
2022/08/23 01:32:43;;;;;;;20.00;18.13;;;;;;;19.80;74.10;94391.22;4905212;29;20265;-62
2022/08/23 01:35:09;;;;;;;21.80;19.40;;;;;;;19.81;74.02;94390.22;4888158;29;20238;-61
2022/08/23 01:37:35;;;;;;;20.83;18.80;;;;;;;19.81;73.85;94390.22;4895017;29;20260;-65
2022/08/23 01:40:01;;;;;;;20.20;18.02;;;;;;;19.78;73.85;94390.66;4894274;29;20230;-65
2022/08/23 01:42:27;;;;;;;19.58;17.50;;;;;;;19.82;73.44;94394.50;4892497;29;20227;-65
2022/08/23 01:44:53;;;;;;;18.38;16.58;;;;;;;19.86;73.07;94397.53;4904865;29;20250;-65
2022/08/23 01:47:18;;;;;;;15.45;14.15;;;;;;;19.89;72.72;94405.09;4903112;29;20579;-65
2022/08/23 01:49:43;;;;;;;15.40;14.00;;;;;;;19.88;72.74;94405.31;4891648;29;20230;-65
2022/08/23 01:52:09;;;;;;;15.82;14.23;;;;;;;19.82;72.25;94396.34;4900677;29;20214;-65
2022/08/23 01:54:34;;;;;;;16.13;14.63;;;;;;;19.85;72.65;94395.09;4908355;29;20278;-66
2022/08/23 01:57:00;;;;;;;17.30;15.60;;;;;;;19.81;72.57;94392.06;4894730;29;20237;-66
2022/08/23 01:59:25;;;;;;;17.35;15.63;;;;;;;19.76;72.71;94394.59;4890999;29;20206;-66
2022/08/23 02:01:52;;;;;;;17.02;15.43;;;;;;;19.78;72.72;94388.00;4896654;29;20234;-66
2022/08/23 02:04:18;;;;;;;17.48;15.68;;;;;;;19.72;73.12;94391.53;4894301;29;20451;-66
2022/08/23 02:06:44;;;;;;;17.95;16.08;;;;;;;19.66;73.08;94392.44;4885599;29;20251;-66
2022/08/23 02:09:10;;;;;;;17.75;16.10;;;;;;;19.65;73.31;94388.13;4886923;29;20230;-68
2022/08/23 02:11:39;;;;;;;18.65;16.60;;;;;;;19.58;73.73;94390.03;4901545;29;20225;-67
2022/08/23 02:14:08;;;;;;;17.13;15.40;;;;;;;19.65;73.46;94396.13;4886273;29;20207;-66
2022/08/23 02:16:39;;;;;;;16.73;15.07;;;;;;;19.68;73.16;94395.69;4897579;29;20230;-66
2022/08/23 02:19:08;;;;;;;16.17;14.68;;;;;;;19.71;73.29;94400.59;4895805;29;20732;-66
2022/08/23 02:21:35;;;;;;;18.05;14.15;;;;;;;19.66;73.02;94397.78;4912348;29;20217;-66
2022/08/23 02:24:13;;;;;;;15.55;14.05;;;;;;;19.64;72.72;94393.66;4888223;29;20250;-66
2022/08/23 02:26:42;;;;;;;15.32;13.68;;;;;;;19.70;72.16;94385.63;4888235;29;20258;-67
2022/08/23 02:29:08;;;;;;;14.18;12.82;;;;;;;19.70;71.85;94376.78;4903407;29;20763;-66
2022/08/23 02:31:34;;;;;;;13.73;12.48;;;;;;;19.66;71.82;94380.94;4888793;29;20302;-66
2022/08/23 02:34:00;;;;;;;14.13;12.95;;;;;;;19.75;71.41;94379.59;4896494;29;20252;-66
2022/08/23 02:36:26;;;;;;;13.88;12.63;;;;;;;19.77;71.14;94378.34;4892725;29;20238;-66
2022/08/23 02:38:54;;;;;;;13.50;12.13;;;;;;;19.76;70.79;94382.06;4890300;29;20245;-66
2022/08/23 02:41:21;;;;;;;12.52;11.40;;;;;;;19.81;69.89;94395.53;4884780;29;20210;-66
2022/08/23 02:43:49;;;;;;;12.20;11.10;;;;;;;19.78;69.71;94395.16;4898476;29;20659;-66
2022/08/23 02:46:14;;;;;;;11.55;10.52;;;;;;;19.85;69.36;94392.44;4889987;29;20235;-66
2022/08/23 02:48:40;;;;;;;12.77;11.48;;;;;;;19.92;68.84;94387.81;4885076;29;20219;-67
2022/08/23 02:51:07;;;;;;;12.10;11.00;;;;;;;19.90;68.38;94390.72;4891173;29;20218;-66
2022/08/23 02:53:33;;;;;;;9.88;9.15;;;;;;;19.88;67.66;94383.97;4894270;29;20217;-66
2022/08/23 02:55:59;;;;;;;8.75;7.75;;;;;;;19.95;67.50;94390.03;4900555;29;20245;-66
2022/08/23 02:58:25;;;;;;;9.80;9.00;;;;;;;19.94;66.73;94383.91;4885341;29;20250;-66
2022/08/23 03:00:52;;;;;;;9.80;9.00;;;;;;;19.96;66.65;94386.31;4895754;29;20257;-65
2022/08/23 03:03:18;;;;;;;9.32;8.52;;;;;;;19.92;66.52;94383.31;4904844;29;20313;-67
2022/08/23 03:05:44;;;;;;;9.00;8.13;;;;;;;19.95;65.97;94385.50;4894716;29;20234;-66
2022/08/23 03:08:09;;;;;;;8.82;8.13;;;;;;;19.92;66.01;94375.28;4895405;29;20705;-65
2022/08/23 03:10:37;;;;;;;8.82;7.60;;;;;;;19.94;66.08;94380.38;4891476;29;20226;-65
2022/08/23 03:13:03;;;;;;;8.45;7.72;;;;;;;19.92;66.21;94382.50;4891075;29;20230;-65
2022/08/23 03:15:28;;;;;;;9.32;8.60;;;;;;;19.90;66.54;94372.03;4894439;29;20663;-65
2022/08/23 03:17:54;;;;;;;9.02;8.25;;;;;;;19.89;66.51;94375.75;4891320;29;20219;-65
2022/08/23 03:20:19;;;;;;;10.82;8.52;;;;;;;19.91;66.74;94376.31;4887376;29;20302;-66
2022/08/23 03:22:45;;;;;;;8.68;7.85;;;;;;;19.91;66.82;94370.16;4893541;29;20230;-65
2022/08/23 03:25:11;;;;;;;9.23;8.27;;;;;;;19.87;66.77;94367.16;4891004;29;20230;-65
2022/08/23 03:27:36;;;;;;;9.35;8.65;;;;;;;19.86;66.82;94365.53;4894966;29;20230;-65
2022/08/23 03:30:04;;;;;;;8.70;7.82;;;;;;;19.87;66.93;94371.69;4903879;29;20236;-65
2022/08/23 03:32:29;;;;;;;8.07;7.32;;;;;;;19.90;66.89;94373.88;4877147;29;20298;-65
2022/08/23 03:34:55;;;;;;;7.57;6.97;;;;;;;19.89;66.66;94377.56;4906549;29;20238;-66
2022/08/23 03:37:21;;;;;;;8.00;7.38;;;;;;;19.89;66.31;94369.56;4895261;29;20245;-65
2022/08/23 03:39:46;;;;;;;7.93;7.20;;;;;;;19.89;66.42;94373.09;4892192;29;20230;-64
2022/08/23 03:42:12;;;;;;;7.65;7.05;;;;;;;19.86;66.50;94386.88;4893106;29;20260;-64
2022/08/23 03:44:37;;;;;;;7.22;6.63;;;;;;;19.91;66.42;94396.84;4896548;29;20238;-65
2022/08/23 03:47:04;;;;;;;6.93;6.32;;;;;;;19.92;66.19;94395.84;4896578;29;20221;-65
2022/08/23 03:49:30;;;;;;;7.28;6.55;;;;;;;19.93;65.93;94400.94;4889537;29;20234;-65
2022/08/23 03:51:57;;;;;;;7.80;7.10;;;;;;;19.90;65.92;94397.91;4907927;29;20233;-66
2022/08/23 03:54:22;;;;;;;7.32;6.63;;;;;;;19.91;66.09;94407.53;4897423;29;20233;-65
2022/08/23 03:56:59;;;;;;;8.98;8.07;;;;;;;19.96;66.57;94418.34;4894673;29;20203;-65
2022/08/23 03:59:25;;;;;;;10.25;9.35;;;;;;;19.93;68.39;94421.47;4905661;29;20209;-65
2022/08/23 04:01:51;;;;;;;12.30;10.38;;;;;;;19.91;69.19;94427.00;4889301;29;20237;-66
2022/08/23 04:04:16;;;;;;;12.07;10.98;;;;;;;19.90;69.29;94429.91;4900000;29;20233;-66
2022/08/23 04:06:44;;;;;;;12.60;11.30;;;;;;;19.83;69.56;94433.50;4895443;29;20227;-66
2022/08/23 04:09:10;;;;;;;10.73;9.65;;;;;;;19.82;69.29;94428.38;4889119;29;20587;-66
2022/08/23 04:11:36;;;;;;;10.68;9.65;;;;;;;19.86;69.21;94431.38;4887403;29;20218;-65
2022/08/23 04:14:01;;;;;;;11.18;10.07;;;;;;;19.85;68.88;94437.78;4887288;29;20273;-65
2022/08/23 04:16:29;;;;;;;11.13;9.23;;;;;;;19.87;68.89;94438.38;4894601;29;20439;-66
2022/08/23 04:18:54;;;;;;;10.15;9.20;;;;;;;19.91;68.71;94439.53;4895026;29;20227;-66
2022/08/23 04:21:21;;;;;;;9.48;8.48;;;;;;;19.83;69.04;94438.81;4898880;29;20254;-66
2022/08/23 04:23:47;;;;;;;9.63;8.70;;;;;;;19.87;68.75;94441.84;4892179;29;20583;-66
2022/08/23 04:26:13;;;;;;;9.40;8.57;;;;;;;19.82;68.85;94449.72;4894226;29;20215;-66
2022/08/23 04:28:38;;;;;;;11.05;8.82;;;;;;;19.90;68.73;94448.59;4892971;29;20367;-66
2022/08/23 04:31:04;;;;;;;10.07;8.60;;;;;;;19.89;68.38;94444.28;4901117;29;20700;-66
2022/08/23 04:33:31;;;;;;;8.15;7.47;;;;;;;19.64;68.02;94447.81;4896259;29;20229;-66
2022/08/23 04:35:59;;;;;;;7.78;7.00;;;;;;;19.54;68.69;94456.34;4898423;29;20253;-66
2022/08/23 04:38:25;;;;;;;7.82;7.05;;;;;;;19.59;68.44;94458.31;4896358;29;20199;-66
2022/08/23 04:43:35;;;;;;;12.15;10.85;;;;;;;19.75;69.48;94465.81;4901155;29;20301;-65
2022/08/23 04:46:01;;;;;;;11.48;10.48;;;;;;;19.69;70.03;94463.19;4894970;29;21086;-65
2022/08/23 04:48:26;;;;;;;11.65;10.55;;;;;;;19.63;70.34;94461.38;4894611;29;20262;-65
2022/08/23 04:50:52;;;;;;;11.10;10.00;;;;;;;19.61;70.82;94466.94;4894281;29;20218;-65
2022/08/23 04:53:18;;;;;;;11.73;10.52;;;;;;;19.68;70.75;94465.06;4902811;29;21061;-65
2022/08/23 04:55:44;;;;;;;11.38;10.27;;;;;;;19.59;70.67;94466.31;4903119;29;20233;-65
2022/08/23 04:58:10;;;;;;;11.38;10.25;;;;;;;19.59;70.96;94469.00;4890773;29;20714;-65
2022/08/23 05:00:35;;;;;;;11.68;10.43;;;;;;;19.62;71.01;94476.59;4885260;29;20233;-67
2022/08/23 05:03:00;;;;;;;12.82;11.70;;;;;;;19.80;70.49;94478.44;4881133;29;20229;-64
2022/08/23 05:05:26;;;;;;;13.25;12.05;;;;;;;19.77;70.02;94481.56;4888132;29;20216;-65
2022/08/23 05:07:52;;;;;;;11.77;10.60;;;;;;;19.63;70.73;94483.53;4887740;29;20343;-64
2022/08/23 05:10:18;;;;;;;11.98;10.95;;;;;;;19.73;70.91;94478.53;4907172;29;20245;-65
2022/08/23 05:12:43;;;;;;;13.13;11.23;;;;;;;19.75;71.01;94478.31;4890805;29;20218;-64
2022/08/23 05:15:10;;;;;;;12.40;11.18;;;;;;;19.87;70.85;94489.88;4904902;29;20229;-64
2022/08/23 05:17:36;;;;;;;11.60;10.15;;;;;;;20.03;69.96;94491.94;4892494;29;20210;-65
2022/08/23 05:20:03;;;;;;;11.18;10.15;;;;;;;19.99;69.90;94495.28;4896595;29;20216;-65
2022/08/23 05:22:32;;;;;;;11.32;10.32;;;;;;;19.98;69.85;94501.66;4907753;29;20227;-65
2022/08/23 05:24:58;;;;;;;11.13;10.10;;;;;;;19.87;70.07;94505.06;4887749;29;20226;-64
2022/08/23 05:27:24;;;;;;;11.65;9.40;;;;;;;19.80;69.12;94500.59;4895093;29;20231;-66
2022/08/23 05:29:53;;;;;;;9.93;8.93;;;;;;;19.98;68.27;94512.34;4894675;29;20264;-65
2022/08/23 05:32:19;;;;;;;10.18;9.18;;;;;;;20.20;66.65;94500.16;4887349;29;20209;-65
2022/08/23 05:34:44;;;;;;;10.13;9.07;;;;;;;20.27;66.58;94500.91;4889646;29;20257;-64
2022/08/23 05:37:10;;;;;;;11.00;10.00;;;;;;;20.45;66.18;94497.41;4884966;29;21087;-65
2022/08/23 05:39:35;;;;;;;12.38;10.80;;;;;;;20.57;67.13;94497.47;4889925;29;20228;-65
2022/08/23 05:42:01;;;;;;;12.77;11.57;;;;;;;20.69;66.71;94501.00;4892147;29;20225;-66
2022/08/23 05:44:27;;;;;;;11.63;10.43;;;;;;;20.64;67.19;94497.38;4890817;29;20280;-66
2022/08/23 05:46:52;;;;;;;11.30;10.20;;;;;;;20.56;67.34;94495.03;4894074;29;20633;-67
2022/08/23 05:49:18;;;;;;;12.25;9.50;;;;;;;20.49;67.29;94493.22;4886158;29;20322;-67
2022/08/23 05:51:43;;;;;;;9.38;8.48;;;;;;;20.49;67.02;94495.88;4890586;29;20224;-66
2022/08/23 05:54:09;;;;;;;9.52;8.63;;;;;;;20.47;66.34;94494.47;4886657;29;20570;-66
2022/08/23 05:56:41;;;;;;;8.85;7.95;;;;;;;20.66;64.24;94505.97;4889475;29;20224;-66
2022/08/23 05:59:08;;;;;;;8.25;7.30;;;;;;;20.70;63.72;94505.31;4893609;29;20296;-68
2022/08/23 06:01:35;;;;;;;8.00;7.20;;;;;;;20.70;63.29;94505.31;4893550;29;20308;-66
2022/08/23 06:04:04;;;;;;;8.23;7.30;;;;;;;20.91;63.01;94505.84;4894725;29;20253;-67
2022/08/23 06:06:31;;;;;;;8.07;7.25;;;;;;;20.96;62.75;94513.19;4888317;29;20430;-68
2022/08/23 06:08:57;;;;;;;7.75;7.05;;;;;;;20.99;62.22;94510.84;4890352;29;20263;-65
2022/08/23 06:11:25;;;;;;;9.82;7.55;;;;;;;21.03;62.04;94512.00;4892317;29;20287;-65
2022/08/23 06:13:56;;;;;;;9.45;7.13;;;;;;;20.98;62.31;94509.22;4904214;29;20226;-65
2022/08/23 06:16:27;;;;;;;9.95;7.82;;;;;;;21.07;62.73;94505.19;4888484;29;20231;-65
2022/08/23 06:18:56;;;;;;;7.80;7.20;;;;;;;21.19;62.15;94512.41;4890465;29;20230;-65
2022/08/23 06:21:24;;;;;;;7.85;7.13;;;;;;;21.26;62.49;94523.81;4892063;29;20221;-65
2022/08/23 06:23:50;;;;;;;9.57;8.57;;;;;;;21.39;62.51;94534.34;4887690;29;20210;-65
2022/08/23 06:26:30;;;;;;;9.38;7.70;;;;;;;21.47;61.77;94531.31;4885291;29;20199;-65
2022/08/23 06:28:58;;;;;;;8.63;7.82;;;;;;;21.47;61.36;94531.31;4888708;29;20313;-66
2022/08/23 06:31:44;;;;;;;8.20;7.50;;;;;;;21.65;60.50;94526.91;4900196;29;20234;-66
2022/08/23 06:34:13;;;;;;;9.93;8.30;;;;;;;21.68;61.36;94534.44;4892123;29;20277;-65
2022/08/23 06:36:39;;;;;;;9.00;8.15;;;;;;;21.76;60.88;94529.59;4908176;29;20233;-66
2022/08/23 06:39:07;;;;;;;10.00;9.00;;;;;;;22.11;59.77;94533.28;4894994;29;20222;-66
2022/08/23 06:41:32;;;;;;;10.07;8.75;;;;;;;22.16;59.33;94525.34;4890670;29;20222;-66
2022/08/23 06:43:58;;;;;;;9.27;8.38;;;;;;;22.32;58.93;94531.88;4890895;29;20226;-65
2022/08/23 06:46:26;;;;;;;8.60;7.68;;;;;;;22.44;58.68;94541.50;4891428;29;20676;-65
2022/08/23 06:48:52;;;;;;;11.20;9.38;;;;;;;22.22;58.28;94548.56;4885687;29;20232;-65
2022/08/23 06:51:30;;;;;;;10.00;8.82;;;;;;;22.17;58.08;94546.53;4888554;29;20222;-65
2022/08/23 06:53:58;;;;;;;10.02;9.02;;;;;;;22.24;58.49;94541.91;4892491;29;20234;-64
2022/08/23 06:56:25;;;;;;;10.50;9.50;;;;;;;22.20;58.73;94545.28;4897676;29;20543;-64
2022/08/23 06:58:52;;;;;;;13.13;11.88;;;;;;;22.31;58.15;94546.31;4903096;29;20308;-64
2022/08/23 07:01:22;;;;;;;13.13;11.57;;;;;;;22.28;58.10;94544.91;4891958;29;20481;-66
2022/08/23 07:03:55;;;;;;;14.18;12.82;;;;;;;22.20;58.62;94545.28;4899162;29;20388;-65
2022/08/23 07:06:23;;;;;;;12.45;11.35;;;;;;;22.16;59.05;94544.09;4882634;29;20626;-65
2022/08/23 07:08:49;;;;;;;12.35;10.90;;;;;;;22.27;58.83;94545.97;4882435;29;20345;-65
2022/08/23 07:11:15;;;;;;;13.70;10.95;;;;;;;22.42;58.56;94550.81;4894419;29;20229;-64
2022/08/23 07:13:41;;;;;;;13.95;12.55;;;;;;;22.52;58.96;94560.94;4887828;29;20737;-67
2022/08/23 07:16:06;;;;;;;17.33;15.63;;;;;;;22.70;58.27;94551.94;4897979;29;20230;-64
2022/08/23 07:18:31;;;;;;;16.58;15.18;;;;;;;22.87;57.68;94556.28;4886168;29;20218;-64
2022/08/23 07:20:59;;;;;;;16.75;15.07;;;;;;;22.68;58.20;94555.66;4881473;29;20956;-64
2022/08/23 07:23:26;;;;;;;16.73;15.32;;;;;;;22.63;58.44;94549.38;4888785;29;20202;-66
2022/08/23 07:25:52;;;;;;;17.55;15.77;;;;;;;22.53;58.67;94555.34;4885325;29;20230;-66
2022/08/23 07:28:17;;;;;;;16.17;14.73;;;;;;;22.56;58.19;94559.41;4890354;29;20830;-66
2022/08/23 07:30:43;;;;;;;16.40;14.85;;;;;;;22.54;58.83;94550.81;4893334;29;20237;-66
2022/08/23 07:33:08;;;;;;;14.98;13.57;;;;;;;22.68;58.59;94547.59;4892633;29;20234;-67
2022/08/23 07:35:34;;;;;;;14.13;12.70;;;;;;;22.68;57.59;94544.94;4889003;29;20221;-67
2022/08/23 07:37:59;;;;;;;15.13;13.70;;;;;;;22.79;57.36;94553.16;4884938;29;20241;-67
2022/08/23 07:40:25;;;;;;;15.07;13.68;;;;;;;22.86;56.95;94554.66;4889417;29;20267;-67
2022/08/23 07:42:50;;;;;;;16.00;14.38;;;;;;;22.83;56.88;94551.66;4898377;29;20759;-64
2022/08/23 07:45:17;;;;;;;16.10;14.45;;;;;;;22.94;57.10;94552.66;4888952;29;20230;-64
2022/08/23 07:47:42;;;;;;;15.77;14.30;;;;;;;22.93;56.68;94549.13;4896003;29;20211;-65
2022/08/23 07:50:08;;;;;;;15.57;14.07;;;;;;;23.04;56.09;94560.88;4881236;29;20225;-64
2022/08/23 07:52:34;;;;;;;15.27;13.98;;;;;;;23.11;55.84;94559.69;4878563;29;20283;-65
2022/08/23 07:55:00;;;;;;;15.30;13.85;;;;;;;23.07;56.08;94558.56;4889196;29;20232;-64
2022/08/23 07:57:26;;;;;;;15.07;13.65;;;;;;;23.13;56.39;94558.66;4890375;29;20234;-63
2022/08/23 07:59:52;;;;;;;16.38;14.93;;;;;;;23.31;56.10;94555.75;4879273;29;20237;-63
2022/08/23 08:02:17;;;;;;;17.05;15.45;;;;;;;23.37;55.41;94564.72;4893377;29;20207;-64
2022/08/23 08:04:42;;;;;;;16.40;14.88;;;;;;;23.38;55.12;94567.13;4879729;29;20254;-64
2022/08/23 08:07:08;;;;;;;18.25;16.45;;;;;;;23.42;55.42;94568.28;4880964;29;20239;-63
2022/08/23 08:09:34;;;;;;;16.30;14.82;;;;;;;23.40;55.55;94565.03;4881623;29;20224;-65
2022/08/23 08:11:59;;;;;;;16.63;15.13;;;;;;;23.45;55.58;94564.31;4881750;29;20693;-64
2022/08/23 08:14:25;;;;;;;17.30;15.55;;;;;;;23.53;55.11;94571.94;4889339;29;20207;-64
2022/08/23 08:16:51;;;;;;;16.77;15.25;;;;;;;23.62;55.20;94573.16;4885196;29;20310;-64
2022/08/23 08:19:18;;;;;;;17.08;15.27;;;;;;;23.60;54.72;94582.50;4889623;29;20234;-64
2022/08/23 08:21:44;;;;;;;16.10;14.60;;;;;;;23.54;55.34;94577.06;4892943;29;20230;-63
2022/08/23 08:24:13;;;;;;;15.38;13.98;;;;;;;23.58;54.54;94576.59;4893685;29;20222;-64
2022/08/23 08:26:40;;;;;;;15.35;13.95;;;;;;;23.52;54.52;94576.50;4893379;29;20205;-63
2022/08/23 08:29:09;;;;;;;16.27;14.80;;;;;;;23.56;55.20;94576.84;4881025;29;20318;-64
2022/08/23 08:31:36;;;;;;;15.40;13.88;;;;;;;23.86;54.67;94581.09;4888012;29;20247;-64
2022/08/23 08:34:02;;;;;;;15.80;14.30;;;;;;;23.85;54.23;94574.09;4888843;29;20255;-64
2022/08/23 08:36:37;;;;;;;15.45;14.02;;;;;;;23.66;55.29;94590.41;4884083;29;20219;-63
2022/08/23 08:39:06;;;;;;;15.23;13.65;;;;;;;23.85;53.67;94579.47;4895788;29;20216;-65
2022/08/23 08:41:44;;;;;;;16.10;14.40;;;;;;;23.86;53.80;94581.91;4890849;29;20210;-64
2022/08/23 08:44:16;;;;;;;17.98;16.27;;;;;;;23.50;54.52;94584.00;4892833;29;20967;-64
2022/08/23 08:46:47;;;;;;;14.98;13.48;;;;;;;23.57;54.57;94581.13;4904042;29;20245;-65
2022/08/23 08:49:41;;;;;;;15.35;13.90;;;;;;;23.78;54.66;94585.78;4891046;29;20245;-64
2022/08/23 08:52:16;;;;;;;16.08;14.48;;;;;;;23.83;54.57;94584.25;4906832;29;20229;-65
2022/08/23 08:54:44;;;;;;;16.88;15.00;;;;;;;23.89;53.97;94578.72;4910522;29;20236;-65
2022/08/23 08:57:13;;;;;;;18.08;16.17;;;;;;;23.86;54.17;94578.41;4909943;29;20207;-64
2022/08/23 09:00:01;;;;;;;18.02;16.27;;;;;;;23.68;53.90;94566.84;4900494;29;20209;-65
2022/08/23 09:02:32;;;;;;;16.70;15.07;;;;;;;23.83;54.09;94558.22;4894337;29;20667;-65
2022/08/23 09:05:02;;;;;;;16.65;15.15;;;;;;;23.95;53.56;94556.28;4892602;29;20222;-65
2022/08/23 09:07:31;;;;;;;19.00;17.30;;;;;;;24.01;53.48;94543.72;4892780;29;20321;-65
2022/08/23 09:10:19;;;;;;;17.50;15.98;;;;;;;24.02;53.59;94544.53;4889366;29;20261;-65
2022/08/23 09:13:02;;;;;;;17.23;15.63;;;;;;;24.20;53.81;94537.00;4888510;29;20329;-65
2022/08/23 09:15:52;;;;;;;19.15;16.35;;;;;;;24.20;53.62;94546.94;4900251;29;20254;-65
2022/08/23 09:18:17;;;;;;;17.98;16.48;;;;;;;24.12;53.71;94542.81;4890815;29;20237;-65
2022/08/23 09:20:46;;;;;;;17.60;15.73;;;;;;;24.06;53.42;94543.81;4892686;29;20340;-65
2022/08/23 09:23:26;;;;;;;18.13;16.45;;;;;;;23.77;53.81;94541.22;4890085;29;20230;-65
2022/08/23 09:25:54;;;;;;;18.25;16.55;;;;;;;23.74;54.05;94544.41;4905538;29;20256;-65
2022/08/23 09:28:20;;;;;;;18.08;16.58;;;;;;;23.76;54.12;94542.31;4892271;29;20451;-65
2022/08/23 09:30:45;;;;;;;18.13;16.45;;;;;;;23.77;54.29;94557.34;4904664;29;20229;-66
2022/08/23 09:33:19;;;;;;;19.05;17.02;;;;;;;23.60;54.48;94547.63;4888231;29;20206;-65
2022/08/23 09:36:21;;;;;;;16.42;14.88;;;;;;;23.72;54.11;94551.88;4884933;29;20580;-65
2022/08/23 09:38:51;;;;;;;18.20;16.40;;;;;;;24.03;53.59;94548.84;4822399;29;20729;-66
2022/08/23 09:41:21;;;;;;;17.10;15.70;;;;;;;24.22;53.31;94544.81;4832663;29;20240;-65
2022/08/23 09:43:47;;;;;;;18.20;16.33;;;;;;;24.21;53.33;94541.31;4821593;29;20327;-65
2022/08/23 09:46:24;;;;;;;16.08;14.60;;;;;;;24.24;52.50;94547.25;4837952;29;20282;-65
2022/08/23 09:48:53;;;;;;;17.08;15.63;;;;;;;24.39;52.48;94552.84;4830625;29;20237;-66
2022/08/23 09:51:30;;;;;;;17.45;15.85;;;;;;;24.59;52.00;94547.75;4834030;29;20244;-65
2022/08/23 09:54:24;;;;;;;18.05;16.35;;;;;;;24.76;51.92;94557.63;4833120;29;20228;-65
2022/08/23 09:57:04;;;;;;;17.13;15.52;;;;;;;24.56;51.33;94550.09;4829491;29;20240;-65
2022/08/23 09:59:46;;;;;;;17.88;16.15;;;;;;;24.87;50.78;94546.72;4836730;29;20260;-65
2022/08/23 10:02:24;;;;;;;17.05;15.35;;;;;;;25.17;50.57;94556.19;4834160;29;20316;-65
2022/08/23 10:05:39;;;;;;;16.60;15.10;;;;;;;25.27;50.03;94550.91;4838686;29;20233;-65
2022/08/23 10:08:05;;;;;;;17.00;15.20;;;;;;;25.55;48.65;94543.63;4798264;29;20260;-66
2022/08/23 10:10:45;;;;;;;15.32;13.93;;;;;;;25.54;47.94;94547.38;4774083;29;20262;-66
2022/08/23 10:13:12;;;;;;;16.63;15.00;;;;;;;25.90;47.96;94545.81;4763087;29;20230;-66
2022/08/23 10:16:05;;;;;;;16.02;14.52;;;;;;;26.14;46.97;94550.78;4808303;29;20859;-66
2022/08/23 10:18:50;;;;;;;15.80;14.35;;;;;;;26.10;46.29;94547.81;4814648;29;20228;-66
2022/08/23 10:21:24;;;;;;;15.63;13.65;;;;;;;26.28;46.38;94546.59;4829146;29;20452;-67
2022/08/23 10:24:07;;;;;;;14.40;13.15;;;;;;;26.62;45.58;94540.81;4815131;29;20318;-67
2022/08/23 10:26:36;;;;;;;14.20;13.10;;;;;;;26.71;45.82;94543.84;4813602;29;20240;-66
2022/08/23 10:32:22;;;;;;;14.82;13.40;;;;;;;27.02;44.34;94542.03;4832480;29;20284;-66
2022/08/23 10:34:59;;;;;;;13.05;11.95;;;;;;;27.01;45.28;94537.72;4830826;29;20251;-66
2022/08/23 10:37:46;;;;;;;14.63;13.32;;;;;;;26.36;45.61;94532.59;4815755;29;20573;-66
2022/08/23 10:40:24;;;;;;;13.73;11.75;;;;;;;26.29;46.44;94534.72;4841779;29;20251;-66
2022/08/23 10:43:07;;;;;;;14.52;13.35;;;;;;;26.46;45.59;94531.03;4887826;29;20238;-66
2022/08/23 10:45:38;;;;;;;14.45;12.95;;;;;;;26.39;45.87;94526.69;4905547;29;20226;-66
2022/08/23 10:48:41;;;;;;;14.23;12.90;;;;;;;25.26;47.67;94521.56;4891859;29;20699;-66
2022/08/23 10:51:16;;;;;;;14.13;12.73;;;;;;;25.22;49.01;94528.53;4889346;29;20210;-65
2022/08/23 10:53:47;;;;;;;13.60;12.23;;;;;;;25.22;47.36;94518.56;4891272;29;20247;-65
2022/08/23 10:56:19;;;;;;;12.60;11.60;;;;;;;25.17;47.67;94523.09;4887743;29;20257;-66
2022/08/23 10:58:48;;;;;;;12.77;11.57;;;;;;;25.29;47.58;94526.47;4887676;29;20226;-65
2022/08/23 11:01:24;;;;;;;13.65;12.55;;;;;;;25.59;47.45;94525.88;4902885;29;20230;-65
2022/08/23 11:04:14;;;;;;;13.15;11.85;;;;;;;25.62;46.84;94528.06;4900610;29;20339;-64
2022/08/23 11:06:46;;;;;;;12.35;11.25;;;;;;;25.64;46.54;94520.53;4897741;29;20237;-65
2022/08/23 11:09:14;;;;;;;11.73;10.73;;;;;;;25.60;46.20;94524.00;4889862;29;20221;-67
2022/08/23 11:11:48;;;;;;;11.45;10.45;;;;;;;25.56;45.61;94520.22;4885595;29;20245;-66
2022/08/23 11:14:56;;;;;;;12.30;11.20;;;;;;;25.63;46.30;94521.59;4884389;29;20278;-66
2022/08/23 11:17:39;;;;;;;11.55;10.45;;;;;;;25.70;46.85;94532.16;4835246;29;20228;-65
2022/08/23 11:20:09;;;;;;;11.63;10.57;;;;;;;25.69;46.99;94525.16;4833820;29;20233;-65
2022/08/23 11:22:56;;;;;;;12.00;10.95;;;;;;;25.76;47.25;94525.75;4829425;29;20241;-66
2022/08/23 11:25:24;;;;;;;12.63;11.40;;;;;;;25.92;47.37;94524.00;4833359;29;20216;-65
2022/08/23 11:28:33;;;;;;;13.63;12.27;;;;;;;25.78;47.27;94523.59;4829752;29;20247;-65
2022/08/23 11:31:09;;;;;;;12.52;10.70;;;;;;;25.94;46.57;94528.06;4810478;29;20225;-66
2022/08/23 11:33:44;;;;;;;11.73;10.63;;;;;;;26.04;46.53;94518.44;4833705;29;20232;-65
2022/08/23 11:36:23;;;;;;;11.25;10.25;;;;;;;26.10;44.49;94520.06;4830239;29;20280;-65
2022/08/23 11:38:49;;;;;;;10.90;10.00;;;;;;;26.06;45.31;94518.97;4834818;29;20794;-66
2022/08/23 11:41:23;;;;;;;11.50;10.50;;;;;;;26.20;44.27;94513.94;4824470;29;20221;-66
2022/08/23 11:44:12;;;;;;;11.50;10.60;;;;;;;26.26;44.12;94508.28;4832757;29;20220;-66
2022/08/23 11:46:49;;;;;;;14.63;11.25;;;;;;;26.28;45.25;94505.34;4826010;29;20237;-67